Seabrook Island, South Carolina
Current Conditions -  °F | °C
As of 11:55 AM on Thursday 30 Oct 2014 (Local Time) from KJZI Reporting Station
Clear Clear  
Wind Chill: 70°   Ceiling: Unl
Heat Index: 70°   Visibility: 10mi
Dew Point: 61°   Wind: 7mph
Humidity: 73%   Direction: 350°N
Pressure: 30"   Gusts: NA
Location:  32.6897°N, 80.0874°W
Report Text: KJZI 301555Z AUTO 35006KT 10SM CLR 21/16 A3000 RMK A02 P000
Loading
Personal Weather Stations






























Interactive Weather Map
Tropical Storm Tracking
New forecast layout! Learn more

10-Day Weather Forecast

Advertisements
Track Severe Weather on mobile